sensor_id;sensor_type;location;lat;lon;timestamp;pressure;altitude;pressure_sealevel;temperature;humidity
11830;BME280;5972;42.134;24.718;2023-11-21T00:00:00;99489.41;;;9.83;100.00
11830;BME280;5972;42.134;24.718;2023-11-21T00:02:27;99482.78;;;9.80;100.00
11830;BME280;5972;42.134;24.718;2023-11-21T00:04:55;99489.19;;;9.76;100.00
11830;BME280;5972;42.134;24.718;2023-11-21T00:07:22;99494.97;;;9.74;100.00
11830;BME280;5972;42.134;24.718;2023-11-21T00:09:49;99489.41;;;9.71;99.89
11830;BME280;5972;42.134;24.718;2023-11-21T00:12:16;99492.81;;;9.80;99.28
11830;BME280;5972;42.134;24.718;2023-11-21T00:14:43;99490.53;;;9.82;99.46
11830;BME280;5972;42.134;24.718;2023-11-21T00:17:10;99490.66;;;9.85;99.20
11830;BME280;5972;42.134;24.718;2023-11-21T00:19:37;99492.59;;;9.85;98.25
11830;BME280;5972;42.134;24.718;2023-11-21T00:22:05;99487.28;;;9.88;97.63
11830;BME280;5972;42.134;24.718;2023-11-21T00:24:32;99487.59;;;9.87;97.39
11830;BME280;5972;42.134;24.718;2023-11-21T00:26:59;99477.72;;;9.91;97.41
11830;BME280;5972;42.134;24.718;2023-11-21T00:29:26;99472.31;;;9.91;96.70
11830;BME280;5972;42.134;24.718;2023-11-21T00:31:53;99476.00;;;9.98;96.38
11830;BME280;5972;42.134;24.718;2023-11-21T00:34:20;99468.59;;;9.95;96.66
11830;BME280;5972;42.134;24.718;2023-11-21T00:36:47;99463.06;;;9.92;97.34
11830;BME280;5972;42.134;24.718;2023-11-21T00:39:15;99463.75;;;9.89;97.47
11830;BME280;5972;42.134;24.718;2023-11-21T00:41:42;99453.28;;;9.75;97.93
11830;BME280;5972;42.134;24.718;2023-11-21T00:44:10;99465.19;;;9.86;98.18
11830;BME280;5972;42.134;24.718;2023-11-21T00:46:37;99451.13;;;9.81;97.75
11830;BME280;5972;42.134;24.718;2023-11-21T00:49:04;99423.03;;;9.57;97.20
11830;BME280;5972;42.134;24.718;2023-11-21T00:51:30;99464.44;;;9.86;97.45
11830;BME280;5972;42.134;24.718;2023-11-21T00:53:58;99459.84;;;9.74;99.26
11830;BME280;5972;42.134;24.718;2023-11-21T00:56:26;99466.03;;;9.50;100.00
11830;BME280;5972;42.134;24.718;2023-11-21T00:58:54;99479.19;;;9.40;100.00
11830;BME280;5972;42.134;24.718;2023-11-21T01:01:21;99478.59;;;9.22;100.00
11830;BME280;5972;42.134;24.718;2023-11-21T01:03:48;99476.59;;;9.19;100.00
11830;BME280;5972;42.134;24.718;2023-11-21T01:06:16;99478.38;;;9.27;100.00
11830;BME280;5972;42.134;24.718;2023-11-21T01:08:43;99477.81;;;9.22;100.00
11830;BME280;5972;42.134;24.718;2023-11-21T01:11:10;99479.25;;;9.07;100.00
11830;BME280;5972;42.134;24.718;2023-11-21T01:13:40;99468.91;;;8.97;100.00
11830;BME280;5972;42.134;24.718;2023-11-21T01:16:08;99472.38;;;9.09;100.00
11830;BME280;5972;42.134;24.718;2023-11-21T01:18:35;99482.59;;;9.04;100.00
11830;BME280;5972;42.134;24.718;2023-11-21T01:21:03;99483.28;;;9.01;100.00
11830;BME280;5972;42.134;24.718;2023-11-21T01:23:30;99473.34;;;8.93;100.00
11830;BME280;5972;42.134;24.718;2023-11-21T01:25:57;99471.88;;;8.83;100.00
11830;BME280;5972;42.134;24.718;2023-11-21T01:28:24;99480.25;;;8.69;100.00
11830;BME280;5972;42.134;24.718;2023-11-21T01:30:53;99448.84;;;8.53;100.00
11830;BME280;5972;42.134;24.718;2023-11-21T01:33:22;99483.41;;;8.71;100.00
11830;BME280;5972;42.134;24.718;2023-11-21T01:35:50;99476.97;;;8.64;100.00
11830;BME280;5972;42.134;24.718;2023-11-21T01:38:16;99483.53;;;8.75;100.00
11830;BME280;5972;42.134;24.718;2023-11-21T01:40:43;99475.06;;;8.64;100.00
11830;BME280;5972;42.134;24.718;2023-11-21T01:43:10;99473.16;;;8.65;100.00
11830;BME280;5972;42.134;24.718;2023-11-21T01:45:37;99475.75;;;8.61;100.00
11830;BME280;5972;42.134;24.718;2023-11-21T01:48:06;99472.56;;;8.59;100.00
11830;BME280;5972;42.134;24.718;2023-11-21T01:50:33;99471.19;;;8.53;100.00
11830;BME280;5972;42.134;24.718;2023-11-21T01:53:00;99460.13;;;8.34;100.00
11830;BME280;5972;42.134;24.718;2023-11-21T01:55:28;99470.56;;;8.56;100.00
11830;BME280;5972;42.134;24.718;2023-11-21T01:57:57;99463.19;;;8.45;100.00
11830;BME280;5972;42.134;24.718;2023-11-21T02:00:24;99467.19;;;8.59;100.00
11830;BME280;5972;42.134;24.718;2023-11-21T02:02:51;99471.25;;;8.65;100.00
11830;BME280;5972;42.134;24.718;2023-11-21T02:05:19;99460.09;;;8.55;100.00
11830;BME280;5972;42.134;24.718;2023-11-21T02:07:47;99460.97;;;8.47;100.00
11830;BME280;5972;42.134;24.718;2023-11-21T02:10:14;99464.50;;;8.39;100.00
11830;BME280;5972;42.134;24.718;2023-11-21T02:12:41;99467.59;;;8.28;100.00
11830;BME280;5972;42.134;24.718;2023-11-21T02:15:10;99461.94;;;8.42;100.00
11830;BME280;5972;42.134;24.718;2023-11-21T02:17:45;99446.88;;;8.20;100.00
11830;BME280;5972;42.134;24.718;2023-11-21T02:20:13;99459.91;;;8.18;100.00
11830;BME280;5972;42.134;24.718;2023-11-21T02:22:43;99472.44;;;8.14;100.00
11830;BME280;5972;42.134;24.718;2023-11-21T02:25:13;99475.53;;;8.04;100.00
11830;BME280;5972;42.134;24.718;2023-11-21T02:27:39;99472.19;;;8.07;100.00
11830;BME280;5972;42.134;24.718;2023-11-21T02:30:08;99473.63;;;8.05;100.00
11830;BME280;5972;42.134;24.718;2023-11-21T02:32:37;99480.97;;;7.96;100.00
11830;BME280;5972;42.134;24.718;2023-11-21T02:35:06;99483.88;;;7.90;100.00
11830;BME280;5972;42.134;24.718;2023-11-21T02:37:33;99478.66;;;7.85;100.00
11830;BME280;5972;42.134;24.718;2023-11-21T02:40:00;99465.06;;;7.82;100.00
11830;BME280;5972;42.134;24.718;2023-11-21T02:42:33;99471.53;;;7.81;100.00
11830;BME280;5972;42.134;24.718;2023-11-21T02:51:53;99468.22;;;7.55;100.00
11830;BME280;5972;42.134;24.718;2023-11-21T02:54:20;99483.91;;;7.52;100.00
11830;BME280;5972;42.134;24.718;2023-11-21T02:56:47;99482.03;;;7.44;100.00
11830;BME280;5972;42.134;24.718;2023-11-21T02:59:16;99481.13;;;7.40;100.00
11830;BME280;5972;42.134;24.718;2023-11-21T03:01:43;99482.22;;;7.39;100.00
11830;BME280;5972;42.134;24.718;2023-11-21T03:04:10;99484.00;;;7.35;100.00
11830;BME280;5972;42.134;24.718;2023-11-21T03:06:43;99486.22;;;7.33;100.00
11830;BME280;5972;42.134;24.718;2023-11-21T03:09:10;99493.06;;;7.14;100.00
11830;BME280;5972;42.134;24.718;2023-11-21T03:11:37;99484.06;;;7.09;100.00
11830;BME280;5972;42.134;24.718;2023-11-21T03:14:04;99483.47;;;6.95;100.00
11830;BME280;5972;42.134;24.718;2023-11-21T03:16:33;99471.13;;;6.86;100.00
11830;BME280;5972;42.134;24.718;2023-11-21T03:19:00;99485.06;;;6.88;100.00
11830;BME280;5972;42.134;24.718;2023-11-21T03:21:27;99472.44;;;6.80;100.00
11830;BME280;5972;42.134;24.718;2023-11-21T03:23:54;99490.31;;;6.84;100.00
11830;BME280;5972;42.134;24.718;2023-11-21T03:26:21;99483.34;;;6.83;100.00
11830;BME280;5972;42.134;24.718;2023-11-21T03:28:48;99481.13;;;6.85;100.00
11830;BME280;5972;42.134;24.718;2023-11-21T03:31:15;99482.69;;;6.86;100.00
11830;BME280;5972;42.134;24.718;2023-11-21T03:33:45;99485.25;;;6.83;100.00
11830;BME280;5972;42.134;24.718;2023-11-21T03:36:12;99487.78;;;6.79;100.00
11830;BME280;5972;42.134;24.718;2023-11-21T03:38:40;99488.28;;;6.73;100.00
11830;BME280;5972;42.134;24.718;2023-11-21T03:41:07;99492.38;;;6.70;100.00
11830;BME280;5972;42.134;24.718;2023-11-21T03:43:35;99481.00;;;6.64;100.00
11830;BME280;5972;42.134;24.718;2023-11-21T03:46:02;99472.47;;;6.54;100.00
11830;BME280;5972;42.134;24.718;2023-11-21T03:48:29;99490.50;;;6.62;100.00
11830;BME280;5972;42.134;24.718;2023-11-21T03:50:57;99480.38;;;6.50;100.00
11830;BME280;5972;42.134;24.718;2023-11-21T03:53:24;99491.47;;;6.57;100.00
11830;BME280;5972;42.134;24.718;2023-11-21T03:55:51;99492.22;;;6.58;100.00
11830;BME280;5972;42.134;24.718;2023-11-21T03:58:18;99498.88;;;6.60;100.00
11830;BME280;5972;42.134;24.718;2023-11-21T04:00:46;99499.03;;;6.55;100.00
11830;BME280;5972;42.134;24.718;2023-11-21T04:03:14;99505.66;;;6.58;100.00
11830;BME280;5972;42.134;24.718;2023-11-21T04:05:41;99508.84;;;6.60;100.00
11830;BME280;5972;42.134;24.718;2023-11-21T04:08:09;99503.63;;;6.55;100.00
11830;BME280;5972;42.134;24.718;2023-11-21T04:10:36;99493.81;;;6.50;100.00
11830;BME280;5972;42.134;24.718;2023-11-21T04:13:05;99489.56;;;6.41;100.00
11830;BME280;5972;42.134;24.718;2023-11-21T04:15:32;99500.44;;;6.53;100.00
11830;BME280;5972;42.134;24.718;2023-11-21T04:17:59;99505.03;;;6.52;100.00
11830;BME280;5972;42.134;24.718;2023-11-21T04:20:26;99508.38;;;6.49;100.00
11830;BME280;5972;42.134;24.718;2023-11-21T04:22:53;99495.88;;;6.45;100.00
11830;BME280;5972;42.134;24.718;2023-11-21T04:25:21;99500.31;;;6.41;100.00
11830;BME280;5972;42.134;24.718;2023-11-21T04:27:49;99513.75;;;6.41;100.00
11830;BME280;5972;42.134;24.718;2023-11-21T04:30:16;99513.56;;;6.37;100.00
11830;BME280;5972;42.134;24.718;2023-11-21T04:32:43;99517.06;;;6.46;100.00
11830;BME280;5972;42.134;24.718;2023-11-21T04:35:10;99513.09;;;6.44;100.00
11830;BME280;5972;42.134;24.718;2023-11-21T04:37:37;99514.06;;;6.39;100.00
11830;BME280;5972;42.134;24.718;2023-11-21T04:40:04;99511.81;;;6.41;100.00
11830;BME280;5972;42.134;24.718;2023-11-21T04:42:35;99512.97;;;6.40;100.00
11830;BME280;5972;42.134;24.718;2023-11-21T04:45:02;99511.69;;;6.46;100.00
11830;BME280;5972;42.134;24.718;2023-11-21T04:47:33;99513.25;;;6.47;100.00
11830;BME280;5972;42.134;24.718;2023-11-21T04:50:00;99514.69;;;6.53;100.00
11830;BME280;5972;42.134;24.718;2023-11-21T04:52:27;99525.75;;;6.60;100.00
11830;BME280;5972;42.134;24.718;2023-11-21T04:54:53;99517.69;;;6.60;100.00
11830;BME280;5972;42.134;24.718;2023-11-21T04:57:22;99517.38;;;6.62;100.00
11830;BME280;5972;42.134;24.718;2023-11-21T04:59:51;99508.03;;;6.59;100.00
11830;BME280;5972;42.134;24.718;2023-11-21T05:02:18;99508.53;;;6.61;100.00
11830;BME280;5972;42.134;24.718;2023-11-21T05:04:46;99505.53;;;6.63;100.00
11830;BME280;5972;42.134;24.718;2023-11-21T05:07:13;99502.84;;;6.63;100.00
11830;BME280;5972;42.134;24.718;2023-11-21T05:09:42;99497.75;;;6.53;100.00
11830;BME280;5972;42.134;24.718;2023-11-21T05:12:09;99515.00;;;6.60;100.00
11830;BME280;5972;42.134;24.718;2023-11-21T05:14:37;99522.13;;;6.65;100.00
11830;BME280;5972;42.134;24.718;2023-11-21T05:17:05;99520.69;;;6.67;100.00
11830;BME280;5972;42.134;24.718;2023-11-21T05:19:33;99525.59;;;6.65;100.00
11830;BME280;5972;42.134;24.718;2023-11-21T05:22:01;99527.78;;;6.63;100.00
11830;BME280;5972;42.134;24.718;2023-11-21T05:24:28;99519.41;;;6.48;100.00
11830;BME280;5972;42.134;24.718;2023-11-21T05:26:55;99522.75;;;6.36;100.00
11830;BME280;5972;42.134;24.718;2023-11-21T05:29:23;99518.00;;;6.42;100.00
11830;BME280;5972;42.134;24.718;2023-11-21T05:31:51;99516.09;;;6.42;100.00
11830;BME280;5972;42.134;24.718;2023-11-21T05:34:19;99518.81;;;6.51;100.00
11830;BME280;5972;42.134;24.718;2023-11-21T05:36:49;99520.22;;;6.48;100.00
11830;BME280;5972;42.134;24.718;2023-11-21T05:39:16;99530.00;;;6.53;100.00
11830;BME280;5972;42.134;24.718;2023-11-21T05:41:44;99523.72;;;6.57;100.00
11830;BME280;5972;42.134;24.718;2023-11-21T05:44:12;99533.66;;;6.65;100.00
11830;BME280;5972;42.134;24.718;2023-11-21T05:46:39;99541.09;;;6.77;100.00
11830;BME280;5972;42.134;24.718;2023-11-21T05:49:08;99537.63;;;6.68;100.00
11830;BME280;5972;42.134;24.718;2023-11-21T05:54:22;99527.19;;;6.49;100.00
11830;BME280;5972;42.134;24.718;2023-11-21T05:56:49;99526.84;;;6.59;100.00
11830;BME280;5972;42.134;24.718;2023-11-21T05:59:16;99522.13;;;6.65;100.00
11830;BME280;5972;42.134;24.718;2023-11-21T06:01:43;99529.88;;;6.66;100.00
11830;BME280;5972;42.134;24.718;2023-11-21T06:04:11;99532.69;;;6.70;100.00
11830;BME280;5972;42.134;24.718;2023-11-21T06:06:39;99541.41;;;6.76;100.00
11830;BME280;5972;42.134;24.718;2023-11-21T06:09:06;99527.50;;;6.74;100.00
11830;BME280;5972;42.134;24.718;2023-11-21T06:11:34;99549.31;;;6.89;100.00
11830;BME280;5972;42.134;24.718;2023-11-21T06:14:01;99524.13;;;6.94;100.00
11830;BME280;5972;42.134;24.718;2023-11-21T06:16:28;99533.56;;;7.26;100.00
11830;BME280;5972;42.134;24.718;2023-11-21T06:18:55;99537.66;;;7.32;100.00
11830;BME280;5972;42.134;24.718;2023-11-21T06:21:22;99514.94;;;7.12;100.00
11830;BME280;5972;42.134;24.718;2023-11-21T06:23:51;99529.41;;;7.37;100.00
11830;BME280;5972;42.134;24.718;2023-11-21T06:26:18;99548.19;;;7.63;100.00
11830;BME280;5972;42.134;24.718;2023-11-21T06:28:46;99538.66;;;7.65;100.00
11830;BME280;5972;42.134;24.718;2023-11-21T06:31:13;99546.66;;;7.82;100.00
11830;BME280;5972;42.134;24.718;2023-11-21T06:33:39;99542.44;;;7.73;100.00
11830;BME280;5972;42.134;24.718;2023-11-21T06:36:08;99535.09;;;7.82;100.00
11830;BME280;5972;42.134;24.718;2023-11-21T06:38:37;99534.38;;;7.93;100.00
11830;BME280;5972;42.134;24.718;2023-11-21T06:41:06;99520.97;;;7.85;100.00
11830;BME280;5972;42.134;24.718;2023-11-21T06:43:33;99540.84;;;8.01;100.00
11830;BME280;5972;42.134;24.718;2023-11-21T06:46:01;99534.97;;;7.70;100.00
11830;BME280;5972;42.134;24.718;2023-11-21T06:48:30;99530.69;;;7.31;100.00
11830;BME280;5972;42.134;24.718;2023-11-21T06:50:56;99515.09;;;7.07;100.00
11830;BME280;5972;42.134;24.718;2023-11-21T06:53:23;99531.25;;;6.98;100.00
11830;BME280;5972;42.134;24.718;2023-11-21T06:55:50;99534.28;;;6.71;100.00
11830;BME280;5972;42.134;24.718;2023-11-21T06:58:18;99544.56;;;6.69;100.00
11830;BME280;5972;42.134;24.718;2023-11-21T07:00:45;99543.47;;;6.79;100.00
11830;BME280;5972;42.134;24.718;2023-11-21T07:03:14;99546.31;;;6.91;100.00
11830;BME280;5972;42.134;24.718;2023-11-21T07:05:41;99537.03;;;7.26;100.00
11830;BME280;5972;42.134;24.718;2023-11-21T07:08:08;99552.09;;;7.27;100.00
11830;BME280;5972;42.134;24.718;2023-11-21T07:10:35;99551.41;;;7.39;100.00
11830;BME280;5972;42.134;24.718;2023-11-21T07:13:03;99551.56;;;7.42;100.00
11830;BME280;5972;42.134;24.718;2023-11-21T07:15:31;99561.44;;;7.30;100.00
11830;BME280;5972;42.134;24.718;2023-11-21T07:17:59;99559.63;;;7.42;100.00
11830;BME280;5972;42.134;24.718;2023-11-21T07:20:26;99551.94;;;7.70;100.00
11830;BME280;5972;42.134;24.718;2023-11-21T07:22:53;99553.56;;;7.63;100.00
11830;BME280;5972;42.134;24.718;2023-11-21T07:25:21;99545.53;;;7.83;100.00
11830;BME280;5972;42.134;24.718;2023-11-21T07:27:48;99535.47;;;8.01;100.00
11830;BME280;5972;42.134;24.718;2023-11-21T07:30:15;99543.31;;;9.43;100.00
11830;BME280;5972;42.134;24.718;2023-11-21T07:32:44;99541.72;;;10.51;100.00
11830;BME280;5972;42.134;24.718;2023-11-21T07:35:15;99535.19;;;11.08;100.00
11830;BME280;5972;42.134;24.718;2023-11-21T07:37:42;99540.09;;;12.28;88.53
11830;BME280;5972;42.134;24.718;2023-11-21T07:40:10;99551.25;;;13.84;72.08
11830;BME280;5972;42.134;24.718;2023-11-21T07:42:37;99546.50;;;14.89;61.41
11830;BME280;5972;42.134;24.718;2023-11-21T07:45:05;99547.69;;;15.62;55.69
11830;BME280;5972;42.134;24.718;2023-11-21T07:50:26;99453.59;;;15.42;52.58
11830;BME280;5972;42.134;24.718;2023-11-21T07:53:28;99446.91;;;15.84;50.47
11830;BME280;5972;42.134;24.718;2023-11-21T07:56:16;99565.31;;;16.92;49.26
11830;BME280;5972;42.134;24.718;2023-11-21T07:59:09;99563.47;;;17.35;47.70
11830;BME280;5972;42.134;24.718;2023-11-21T08:02:40;99577.19;;;17.38;46.76
11830;BME280;5972;42.134;24.718;2023-11-21T08:05:42;99432.31;;;15.55;48.70
11830;BME280;5972;42.134;24.718;2023-11-21T08:12:13;99458.72;;;15.47;50.43
11830;BME280;5972;42.134;24.718;2023-11-21T08:18:35;99440.16;;;16.39;48.65
11830;BME280;5972;42.134;24.718;2023-11-21T08:21:15;99556.13;;;17.96;45.73
11830;BME280;5972;42.134;24.718;2023-11-21T08:23:47;99549.09;;;17.63;46.41
11830;BME280;5972;42.134;24.718;2023-11-21T08:26:37;99447.94;;;16.34;47.04
11830;BME280;5972;42.134;24.718;2023-11-21T08:38:14;99471.56;;;16.77;46.81
11830;BME280;5972;42.134;24.718;2023-11-21T08:39:24;99504.41;;;16.91;46.91
11830;BME280;5972;42.134;24.718;2023-11-21T08:42:13;99539.31;;;16.50;47.10
11830;BME280;5972;42.134;24.718;2023-11-21T08:45:16;99438.47;;;15.48;49.13
11830;BME280;5972;42.134;24.718;2023-11-21T08:53:26;99426.38;;;16.07;47.74
11830;BME280;5972;42.134;24.718;2023-11-21T08:54:10;99511.53;;;18.16;44.08
11830;BME280;5972;42.134;24.718;2023-11-21T09:00:13;99443.78;;;19.07;40.61
11830;BME280;5972;42.134;24.718;2023-11-21T09:03:12;99416.44;;;18.97;40.68
11830;BME280;5972;42.134;24.718;2023-11-21T09:05:40;99455.00;;;19.31;40.97
11830;BME280;5972;42.134;24.718;2023-11-21T09:11:27;99361.13;;;17.03;42.97
11830;BME280;5972;42.134;24.718;2023-11-21T09:14:42;99367.25;;;17.85;42.13
11830;BME280;5972;42.134;24.718;2023-11-21T09:30:48;99325.47;;;17.74;41.72
11830;BME280;5972;42.134;24.718;2023-11-21T09:36:56;99428.31;;;17.25;43.71
11830;BME280;5972;42.134;24.718;2023-11-21T09:40:00;99413.81;;;16.86;44.86
11830;BME280;5972;42.134;24.718;2023-11-21T09:42:37;99393.41;;;16.51;44.97
11830;BME280;5972;42.134;24.718;2023-11-21T09:45:51;99378.03;;;16.11;46.00
11830;BME280;5972;42.134;24.718;2023-11-21T09:48:37;99394.06;;;16.16;46.53
11830;BME280;5972;42.134;24.718;2023-11-21T09:51:13;99345.34;;;15.46;47.16
11830;BME280;5972;42.134;24.718;2023-11-21T09:54:06;99283.53;;;15.03;48.20
11830;BME280;5972;42.134;24.718;2023-11-21T09:57:03;99297.94;;;15.03;48.83
11830;BME280;5972;42.134;24.718;2023-11-21T09:59:47;99359.59;;;15.80;48.80
11830;BME280;5972;42.134;24.718;2023-11-21T10:02:46;99349.56;;;15.98;46.94
11830;BME280;5972;42.134;24.718;2023-11-21T10:05:28;99424.78;;;17.03;46.66
11830;BME280;5972;42.134;24.718;2023-11-21T10:08:34;99292.38;;;17.01;44.58
11830;BME280;5972;42.134;24.718;2023-11-21T10:11:06;99346.81;;;18.14;43.30
11830;BME280;5972;42.134;24.718;2023-11-21T10:14:07;99355.19;;;17.75;43.78
11830;BME280;5972;42.134;24.718;2023-11-21T10:17:06;99378.56;;;18.05;43.34
11830;BME280;5972;42.134;24.718;2023-11-21T10:19:39;99324.81;;;18.28;42.44
11830;BME280;5972;42.134;24.718;2023-11-21T10:22:29;99388.72;;;18.88;41.58
11830;BME280;5972;42.134;24.718;2023-11-21T10:25:43;99255.22;;;18.22;41.90
11830;BME280;5972;42.134;24.718;2023-11-21T10:28:22;99237.56;;;17.65;41.23
11830;BME280;5972;42.134;24.718;2023-11-21T10:31:07;99325.97;;;16.73;43.51
11830;BME280;5972;42.134;24.718;2023-11-21T10:33:35;99309.50;;;17.48;43.08
11830;BME280;5972;42.134;24.718;2023-11-21T10:36:25;99287.19;;;17.70;42.49
11830;BME280;5972;42.134;24.718;2023-11-21T10:42:07;99244.63;;;17.44;42.19
11830;BME280;5972;42.134;24.718;2023-11-21T10:45:32;99362.22;;;19.19;40.11
11830;BME280;5972;42.134;24.718;2023-11-21T10:48:27;99307.34;;;18.78;40.00
11830;BME280;5972;42.134;24.718;2023-11-21T10:51:57;99349.28;;;18.71;40.79
11830;BME280;5972;42.134;24.718;2023-11-21T10:54:40;99333.53;;;18.13;41.54
11830;BME280;5972;42.134;24.718;2023-11-21T11:03:39;99236.84;;;15.94;44.91
11830;BME280;5972;42.134;24.718;2023-11-21T11:20:27;99184.97;;;14.86;47.99
11830;BME280;5972;42.134;24.718;2023-11-21T11:23:30;99272.50;;;15.43;48.36
11830;BME280;5972;42.134;24.718;2023-11-21T11:26:12;99286.16;;;14.44;50.76
11830;BME280;5972;42.134;24.718;2023-11-21T11:28:47;99283.50;;;14.48;52.24
11830;BME280;5972;42.134;24.718;2023-11-21T11:31:31;99272.56;;;14.44;52.72
11830;BME280;5972;42.134;24.718;2023-11-21T11:34:28;99198.94;;;14.30;52.90
11830;BME280;5972;42.134;24.718;2023-11-21T11:37:02;99147.25;;;13.90;53.24
11830;BME280;5972;42.134;24.718;2023-11-21T11:39:35;99177.31;;;14.04;53.83
11830;BME280;5972;42.134;24.718;2023-11-21T11:42:07;99169.69;;;13.80;54.95
11830;BME280;5972;42.134;24.718;2023-11-21T11:44:51;99139.78;;;13.43;57.02
11830;BME280;5972;42.134;24.718;2023-11-21T11:47:31;99215.03;;;13.72;58.90
11830;BME280;5972;42.134;24.718;2023-11-21T11:50:07;99080.16;;;12.90;59.10
11830;BME280;5972;42.134;24.718;2023-11-21T11:52:41;99145.88;;;13.32;59.55
11830;BME280;5972;42.134;24.718;2023-11-21T11:55:12;99206.44;;;13.66;60.34
11830;BME280;5972;42.134;24.718;2023-11-21T11:57:42;99170.53;;;13.50;61.08
11830;BME280;5972;42.134;24.718;2023-11-21T12:00:32;99146.75;;;13.40;60.83
11830;BME280;5972;42.134;24.718;2023-11-21T12:03:08;99097.06;;;13.10;61.03
11830;BME280;5972;42.134;24.718;2023-11-21T12:05:37;99163.19;;;13.54;61.63
11830;BME280;5972;42.134;24.718;2023-11-21T12:08:08;99119.09;;;13.31;60.64
11830;BME280;5972;42.134;24.718;2023-11-21T12:10:37;99187.16;;;13.45;61.13
11830;BME280;5972;42.134;24.718;2023-11-21T12:13:06;99165.75;;;13.40;62.67
11830;BME280;5972;42.134;24.718;2023-11-21T12:15:34;99091.13;;;13.01;61.89
11830;BME280;5972;42.134;24.718;2023-11-21T12:18:05;99179.50;;;13.54;61.33
11830;BME280;5972;42.134;24.718;2023-11-21T12:20:32;99123.22;;;13.21;62.12
11830;BME280;5972;42.134;24.718;2023-11-21T12:23:04;99124.41;;;13.20;62.19
11830;BME280;5972;42.134;24.718;2023-11-21T12:25:33;99101.97;;;12.97;62.37
11830;BME280;5972;42.134;24.718;2023-11-21T12:28:02;99129.28;;;13.11;62.34
11830;BME280;5972;42.134;24.718;2023-11-21T12:30:33;99055.03;;;12.97;60.89
11830;BME280;5972;42.134;24.718;2023-11-21T12:33:03;99208.06;;;14.11;60.04
11830;BME280;5972;42.134;24.718;2023-11-21T12:35:33;99144.75;;;13.70;59.57
11830;BME280;5972;42.134;24.718;2023-11-21T12:38:04;99206.31;;;14.33;58.37
11830;BME280;5972;42.134;24.718;2023-11-21T12:40:35;99207.09;;;14.30;58.38
11830;BME280;5972;42.134;24.718;2023-11-21T12:43:04;99171.56;;;14.16;58.21
11830;BME280;5972;42.134;24.718;2023-11-21T12:45:40;99213.06;;;14.43;57.73
11830;BME280;5972;42.134;24.718;2023-11-21T12:48:07;99191.97;;;14.36;58.06
11830;BME280;5972;42.134;24.718;2023-11-21T12:50:38;99106.38;;;13.79;57.41
11830;BME280;5972;42.134;24.718;2023-11-21T12:53:08;99152.75;;;14.37;56.92
11830;BME280;5972;42.134;24.718;2023-11-21T12:55:39;99133.09;;;14.14;57.10
11830;BME280;5972;42.134;24.718;2023-11-21T12:58:08;99160.31;;;14.18;57.69
11830;BME280;5972;42.134;24.718;2023-11-21T13:00:38;99103.09;;;14.07;57.30
11830;BME280;5972;42.134;24.718;2023-11-21T13:03:06;99164.38;;;14.38;57.32
11830;BME280;5972;42.134;24.718;2023-11-21T13:05:35;99165.28;;;14.52;57.42
11830;BME280;5972;42.134;24.718;2023-11-21T13:08:07;99168.03;;;14.56;56.71
11830;BME280;5972;42.134;24.718;2023-11-21T13:10:36;99137.59;;;14.40;57.06
11830;BME280;5972;42.134;24.718;2023-11-21T13:13:09;99055.78;;;13.71;57.48
11830;BME280;5972;42.134;24.718;2023-11-21T13:15:48;99126.69;;;13.92;58.72
11830;BME280;5972;42.134;24.718;2023-11-21T13:18:15;99157.75;;;14.35;57.94
11830;BME280;5972;42.134;24.718;2023-11-21T13:20:50;99120.56;;;14.02;57.97
11830;BME280;5972;42.134;24.718;2023-11-21T13:23:17;99167.91;;;14.38;58.11
11830;BME280;5972;42.134;24.718;2023-11-21T13:25:44;99178.09;;;14.48;57.22
11830;BME280;5972;42.134;24.718;2023-11-21T13:28:14;99147.69;;;14.39;56.47
11830;BME280;5972;42.134;24.718;2023-11-21T13:30:43;99148.06;;;14.38;56.62
11830;BME280;5972;42.134;24.718;2023-11-21T13:33:11;99156.47;;;14.22;57.53
11830;BME280;5972;42.134;24.718;2023-11-21T13:35:43;99138.88;;;14.09;57.98
11830;BME280;5972;42.134;24.718;2023-11-21T13:38:14;99066.53;;;13.57;57.63
11830;BME280;5972;42.134;24.718;2023-11-21T13:40:49;99190.19;;;14.54;57.28
11830;BME280;5972;42.134;24.718;2023-11-21T13:43:21;99197.25;;;14.59;57.10
11830;BME280;5972;42.134;24.718;2023-11-21T13:45:53;99119.50;;;14.14;57.10
11830;BME280;5972;42.134;24.718;2023-11-21T13:48:27;99117.06;;;14.05;56.83
11830;BME280;5972;42.134;24.718;2023-11-21T13:51:08;99164.19;;;14.16;57.36
11830;BME280;5972;42.134;24.718;2023-11-21T13:53:42;99114.31;;;13.98;57.37
11830;BME280;5972;42.134;24.718;2023-11-21T13:56:13;99151.81;;;14.23;57.24
11830;BME280;5972;42.134;24.718;2023-11-21T13:58:57;99202.25;;;14.53;57.22
11830;BME280;5972;42.134;24.718;2023-11-21T14:01:35;99064.72;;;13.71;57.01
11830;BME280;5972;42.134;24.718;2023-11-21T14:04:25;99109.88;;;13.83;56.90
11830;BME280;5972;42.134;24.718;2023-11-21T14:07:26;99074.00;;;13.63;57.35
11830;BME280;5972;42.134;24.718;2023-11-21T14:10:09;99166.09;;;14.09;58.08
11830;BME280;5972;42.134;24.718;2023-11-21T14:12:39;99145.41;;;14.01;58.43
11830;BME280;5972;42.134;24.718;2023-11-21T14:15:12;99140.19;;;13.82;59.89
11830;BME280;5972;42.134;24.718;2023-11-21T14:17:51;99185.13;;;14.09;59.98
11830;BME280;5972;42.134;24.718;2023-11-21T14:20:37;99195.28;;;14.15;60.79
11830;BME280;5972;42.134;24.718;2023-11-21T14:23:07;99195.25;;;14.12;61.10
11830;BME280;5972;42.134;24.718;2023-11-21T14:25:34;99192.84;;;14.03;62.29
11830;BME280;5972;42.134;24.718;2023-11-21T14:28:10;99191.63;;;13.97;62.79
11830;BME280;5972;42.134;24.718;2023-11-21T14:30:39;99195.06;;;13.91;63.53
11830;BME280;5972;42.134;24.718;2023-11-21T14:33:09;99188.75;;;13.83;64.16
11830;BME280;5972;42.134;24.718;2023-11-21T14:35:41;99175.03;;;13.69;65.10
11830;BME280;5972;42.134;24.718;2023-11-21T14:38:12;99173.34;;;13.57;66.46
11830;BME280;5972;42.134;24.718;2023-11-21T14:40:42;99162.69;;;13.42;67.36
11830;BME280;5972;42.134;24.718;2023-11-21T14:43:10;99126.94;;;13.10;67.92
11830;BME280;5972;42.134;24.718;2023-11-21T14:45:39;99140.25;;;13.15;68.88